createdAt,value
2018-11-05T00:00:46.696Z,13.00
2018-11-05T00:03:15.582Z,12.37
2018-11-05T00:05:47.874Z,12.27
2018-11-05T00:08:23.465Z,12.10
2018-11-05T00:10:58.088Z,12.87
2018-11-05T00:13:39.680Z,12.63
2018-11-05T00:16:20.608Z,12.90
2018-11-05T00:18:49.552Z,12.80
2018-11-05T00:21:18.455Z,12.97
2018-11-05T00:23:47.352Z,12.50
2018-11-05T00:26:16.213Z,13.27
2018-11-05T00:28:57.896Z,11.80
2018-11-05T00:31:27.834Z,13.37
2018-11-05T00:33:56.762Z,12.57
2018-11-05T00:36:25.635Z,12.03
2018-11-05T00:38:54.526Z,12.83
2018-11-05T00:41:45.847Z,12.27
2018-11-05T00:44:14.728Z,12.50
2018-11-05T00:46:43.668Z,12.50
2018-11-05T00:49:22.309Z,12.87
2018-11-05T00:51:51.192Z,12.30
2018-11-05T00:54:22.407Z,12.97
2018-11-05T00:56:53.443Z,12.50
2018-11-05T00:59:22.313Z,11.27
2018-11-05T01:01:51.216Z,12.33
2018-11-05T01:04:25.929Z,11.87
2018-11-05T01:06:57.960Z,12.00
2018-11-05T01:12:20.254Z,11.80
2018-11-05T01:14:49.144Z,12.17
2018-11-05T01:17:18.038Z,11.77
2018-11-05T01:19:46.941Z,12.33
2018-11-05T01:22:15.847Z,11.97
2018-11-05T01:24:44.915Z,12.00
2018-11-05T01:27:13.848Z,12.37
2018-11-05T01:29:48.331Z,11.50
2018-11-05T01:32:17.230Z,11.53
2018-11-05T01:34:46.082Z,11.87
2018-11-05T01:40:21.629Z,12.00
2018-11-05T01:42:55.820Z,11.43
2018-11-05T01:45:24.674Z,12.10
2018-11-05T01:47:53.525Z,11.20
2018-11-05T01:50:22.440Z,11.47
2018-11-05T01:52:56.840Z,11.37
2018-11-05T01:55:25.700Z,11.00
2018-11-05T01:57:54.596Z,11.30
2018-11-05T02:00:23.512Z,11.53
2018-11-05T02:02:52.414Z,10.73
2018-11-05T02:05:21.308Z,11.03
2018-11-05T02:07:50.251Z,10.67
2018-11-05T02:10:19.790Z,11.93
2018-11-05T02:12:48.612Z,11.60
2018-11-05T02:15:22.391Z,11.20
2018-11-05T02:17:51.447Z,11.23
2018-11-05T02:20:20.317Z,11.60
2018-11-05T02:22:55.025Z,12.57
2018-11-05T02:25:23.950Z,11.67
2018-11-05T02:27:52.824Z,12.03
2018-11-05T02:30:21.765Z,11.67
2018-11-05T02:32:50.704Z,11.40
2018-11-05T02:35:19.646Z,11.47
2018-11-05T02:37:55.301Z,11.03
2018-11-05T02:40:24.231Z,10.87
2018-11-05T02:42:53.134Z,11.97
2018-11-05T02:45:42.462Z,11.10
2018-11-05T02:48:22.934Z,11.57
2018-11-05T02:50:51.821Z,11.77
2018-11-05T02:53:30.380Z,11.43
2018-11-05T02:56:12.738Z,10.83
2018-11-05T02:58:41.704Z,11.07
2018-11-05T03:01:10.558Z,11.37
2018-11-05T03:03:39.462Z,12.00
2018-11-05T03:06:10.362Z,11.63
2018-11-05T03:08:40.379Z,11.57
2018-11-05T03:11:10.308Z,11.20
2018-11-05T03:13:39.293Z,11.60
2018-11-05T03:16:27.015Z,11.97
2018-11-05T03:18:55.942Z,11.37
2018-11-05T03:21:24.816Z,11.40
2018-11-05T03:23:53.747Z,12.20
2018-11-05T03:26:31.218Z,11.60
2018-11-05T03:29:17.210Z,11.17
2018-11-05T03:31:48.203Z,10.93
2018-11-05T03:34:17.068Z,12.13
2018-11-05T03:36:45.971Z,11.27
2018-11-05T03:39:27.026Z,12.33
2018-11-05T03:41:55.921Z,11.67
2018-11-05T03:44:24.810Z,11.33
2018-11-05T03:46:58.175Z,11.80
2018-11-05T03:49:27.017Z,11.23
2018-11-05T03:51:55.926Z,11.13
2018-11-05T03:54:24.826Z,11.23
2018-11-05T03:56:53.743Z,11.27
2018-11-05T03:59:22.626Z,12.67
2018-11-05T04:02:12.464Z,12.03
2018-11-05T04:04:41.594Z,12.13
2018-11-05T04:07:10.497Z,11.10
2018-11-05T04:09:43.113Z,11.60
2018-11-05T04:12:12.071Z,12.07
2018-11-05T04:14:40.950Z,11.23
2018-11-05T04:17:10.970Z,12.83
2018-11-05T04:19:39.868Z,12.30
2018-11-05T04:22:08.717Z,11.67
2018-11-05T04:24:37.592Z,12.43
2018-11-05T04:27:14.176Z,12.07
2018-11-05T04:29:51.062Z,12.07
2018-11-05T04:32:39.191Z,12.17
2018-11-05T04:35:21.197Z,11.83
2018-11-05T04:38:00.374Z,12.23
2018-11-05T04:40:30.446Z,12.60
2018-11-05T04:42:59.335Z,12.47
2018-11-05T04:45:33.305Z,12.70
2018-11-05T04:48:18.488Z,12.77
2018-11-05T04:50:54.640Z,13.03
2018-11-05T04:53:30.029Z,12.30
2018-11-05T04:56:06.122Z,12.80
2018-11-05T05:01:28.101Z,12.97
2018-11-05T05:04:01.138Z,12.53
2018-11-05T05:06:42.319Z,13.23
2018-11-05T05:09:22.289Z,15.53
2018-11-05T05:11:57.316Z,13.47
2018-11-05T05:14:34.598Z,14.43
2018-11-05T05:17:14.228Z,13.87
2018-11-05T05:19:48.556Z,13.90
2018-11-05T05:22:17.569Z,13.83
2018-11-05T05:24:46.573Z,13.47
2018-11-05T05:27:15.452Z,12.93
2018-11-05T05:29:44.400Z,12.73
2018-11-05T05:32:15.321Z,14.13
2018-11-05T05:34:54.304Z,12.93
2018-11-05T05:37:35.232Z,13.00
2018-11-05T05:40:09.422Z,14.63
2018-11-05T05:42:39.171Z,14.60
2018-11-05T05:45:10.835Z,13.40
2018-11-05T05:47:39.917Z,14.63
2018-11-05T05:50:11.502Z,14.50
2018-11-05T05:52:45.509Z,14.73
2018-11-05T05:55:14.960Z,13.87
2018-11-05T05:57:44.906Z,13.83
2018-11-05T06:00:15.660Z,13.27
2018-11-05T06:02:56.325Z,14.47
2018-11-05T06:05:25.330Z,14.90
2018-11-05T06:07:54.225Z,14.93
2018-11-05T06:10:23.125Z,13.87
2018-11-05T06:12:52.040Z,13.20
2018-11-05T06:15:22.053Z,14.57
2018-11-05T06:17:50.936Z,13.40
2018-11-05T06:20:20.605Z,15.53
2018-11-05T06:22:56.702Z,14.60
2018-11-05T06:25:25.586Z,15.23
2018-11-05T06:27:54.527Z,14.33
2018-11-05T06:30:23.383Z,14.13
2018-11-05T06:36:09.108Z,15.57
2018-11-05T06:38:37.987Z,14.93
2018-11-05T06:41:07.507Z,15.20
2018-11-05T06:43:36.424Z,15.67
2018-11-05T06:46:05.641Z,14.93
2018-11-05T06:48:51.058Z,15.10
2018-11-05T06:51:33.185Z,15.07
2018-11-05T06:54:02.781Z,14.43
2018-11-05T06:56:37.655Z,15.50
2018-11-05T06:59:14.059Z,14.37
2018-11-05T07:01:48.575Z,15.47
2018-11-05T07:04:20.611Z,14.90
2018-11-05T07:06:49.690Z,15.30
2018-11-05T07:09:20.748Z,14.93
2018-11-05T07:12:02.059Z,15.13
2018-11-05T07:14:32.093Z,15.67
2018-11-05T07:17:04.643Z,14.70
2018-11-05T07:19:51.573Z,14.57
2018-11-05T07:22:20.468Z,15.13
2018-11-05T07:24:54.251Z,15.50
2018-11-05T07:27:33.222Z,13.80
2018-11-05T07:30:14.320Z,13.97
2018-11-05T07:32:45.670Z,15.23
2018-11-05T07:35:15.982Z,15.70
2018-11-05T07:37:46.110Z,16.20
2018-11-05T07:40:17.946Z,15.77
2018-11-05T07:43:04.242Z,16.23
2018-11-05T07:45:39.980Z,16.87
2018-11-05T07:48:08.916Z,16.47
2018-11-05T07:50:38.847Z,17.13
2018-11-05T07:53:08.768Z,17.53
2018-11-05T07:55:49.102Z,15.97
2018-11-05T07:58:21.281Z,17.20
2018-11-05T08:03:45.152Z,16.17
2018-11-05T08:06:18.485Z,17.17
2018-11-05T08:08:47.419Z,16.63
2018-11-05T08:14:14.734Z,16.40
2018-11-05T08:16:50.222Z,17.63
2018-11-05T08:19:19.140Z,17.37
2018-11-05T08:21:52.072Z,16.43
2018-11-05T08:24:21.024Z,16.43
2018-11-05T08:27:08.028Z,16.57
2018-11-05T08:29:43.826Z,16.83
2018-11-05T08:35:07.432Z,17.63
2018-11-05T08:37:38.380Z,17.40
2018-11-05T08:40:20.369Z,17.67
2018-11-05T08:42:50.122Z,18.50
2018-11-05T08:45:20.308Z,18.23
2018-11-05T08:48:00.194Z,18.80
2018-11-05T08:50:29.278Z,18.63
2018-11-05T08:52:58.068Z,18.70
2018-11-05T08:55:27.531Z,18.40
2018-11-05T08:57:56.476Z,17.50
2018-11-05T09:00:30.635Z,17.97
2018-11-05T09:02:59.936Z,18.40
2018-11-05T09:05:33.051Z,18.73
2018-11-05T09:08:01.973Z,19.40
2018-11-05T09:10:54.717Z,18.13
2018-11-05T09:13:23.316Z,17.87
2018-11-05T09:15:52.169Z,18.03
2018-11-05T09:18:21.126Z,19.10
2018-11-05T09:21:00.335Z,17.83
2018-11-05T09:23:29.338Z,17.87
2018-11-05T09:25:58.220Z,18.03
2018-11-05T09:28:27.080Z,17.93
2018-11-05T09:31:08.789Z,19.03
2018-11-05T09:33:39.722Z,18.10
2018-11-05T09:36:08.591Z,18.37
2018-11-05T09:38:39.574Z,18.40
2018-11-05T09:41:10.520Z,18.97
2018-11-05T09:43:49.844Z,17.83
2018-11-05T09:46:30.677Z,18.90
2018-11-05T09:49:03.648Z,19.07
2018-11-05T09:51:33.071Z,18.27
2018-11-05T09:54:02.006Z,18.20
2018-11-05T09:56:30.993Z,18.27
2018-11-05T09:59:00.284Z,18.27
2018-11-05T10:01:34.226Z,18.93
2018-11-05T10:06:57.223Z,16.83
2018-11-05T10:09:27.163Z,17.07
2018-11-05T10:12:00.143Z,18.13
2018-11-05T10:14:29.012Z,17.23
2018-11-05T10:17:09.552Z,17.03
2018-11-05T10:19:40.494Z,17.07
2018-11-05T10:22:09.507Z,18.23
2018-11-05T10:24:38.499Z,17.37
2018-11-05T10:27:07.358Z,17.37
2018-11-05T10:29:36.303Z,18.73
2018-11-05T10:32:09.081Z,18.20
2018-11-05T10:34:38.089Z,17.57
2018-11-05T10:37:07.138Z,17.00
2018-11-05T10:42:46.774Z,16.80
2018-11-05T10:45:34.113Z,17.73
2018-11-05T10:48:03.050Z,17.83
2018-11-05T10:53:33.782Z,17.10
2018-11-05T10:56:02.763Z,16.93
2018-11-05T10:58:31.632Z,16.20
2018-11-05T11:01:05.902Z,17.30
2018-11-05T11:03:39.895Z,16.33
2018-11-05T11:06:26.952Z,17.00
2018-11-05T11:09:08.406Z,15.50
2018-11-05T11:11:49.379Z,16.07
2018-11-05T11:14:25.708Z,16.00
2018-11-05T11:17:02.258Z,16.23
2018-11-05T11:19:42.920Z,16.73
2018-11-05T11:22:36.077Z,16.53
2018-11-05T11:25:07.420Z,17.60
2018-11-05T11:27:37.713Z,18.00
2018-11-05T11:30:11.465Z,17.50
2018-11-05T11:32:51.630Z,16.67
2018-11-05T11:35:24.492Z,16.37
2018-11-05T11:37:54.482Z,16.90
2018-11-05T11:40:28.969Z,17.57
2018-11-05T11:42:59.057Z,16.63
2018-11-05T11:45:32.566Z,16.67
2018-11-05T11:48:01.461Z,17.10
2018-11-05T11:50:31.487Z,16.77
2018-11-05T11:53:02.529Z,17.77
2018-11-05T11:55:51.153Z,17.40
2018-11-05T12:07:10.476Z,17.43
2018-11-05T12:09:45.172Z,19.07
2018-11-05T12:12:23.904Z,18.40
2018-11-05T12:15:10.893Z,18.43
2018-11-05T12:17:41.365Z,18.20
2018-11-05T12:20:17.754Z,19.03
2018-11-05T12:22:57.036Z,18.20
2018-11-05T12:25:33.483Z,17.90
2018-11-05T12:28:09.373Z,18.60
2018-11-05T12:30:43.497Z,18.63
2018-11-05T12:33:17.592Z,18.30
2018-11-05T12:36:09.210Z,19.37
2018-11-05T12:38:39.790Z,19.87
2018-11-05T12:44:10.861Z,20.37
2018-11-05T12:49:49.787Z,18.63
2018-11-05T12:52:36.743Z,19.00
2018-11-05T12:55:11.534Z,18.23
2018-11-05T12:57:43.872Z,18.70
2018-11-05T13:00:18.984Z,17.20
2018-11-05T13:02:55.479Z,17.13
2018-11-05T13:05:30.742Z,18.10
2018-11-05T13:08:05.619Z,16.97
2018-11-05T13:10:34.552Z,17.13
2018-11-05T13:13:06.855Z,18.40
2018-11-05T13:15:43.151Z,17.97
2018-11-05T13:18:12.492Z,17.93
2018-11-05T13:20:41.385Z,17.87
2018-11-05T13:23:10.249Z,18.80
2018-11-05T13:25:39.176Z,18.47
2018-11-05T13:28:08.077Z,18.30
2018-11-05T13:30:40.176Z,17.30
2018-11-05T13:33:10.074Z,18.10
2018-11-05T13:35:43.103Z,17.87
2018-11-05T13:38:12.845Z,18.40
2018-11-05T13:43:42.296Z,18.10
2018-11-05T13:46:11.406Z,19.00
2018-11-05T13:49:01.641Z,18.60
2018-11-05T13:51:31.073Z,19.27
2018-11-05T13:54:00.121Z,18.90
2018-11-05T13:59:28.607Z,19.20
2018-11-05T14:01:57.601Z,19.17
2018-11-05T14:04:29.769Z,20.13
2018-11-05T14:07:01.705Z,19.93
2018-11-05T14:09:32.974Z,20.30
2018-11-05T14:12:02.957Z,20.53
2018-11-05T14:14:35.757Z,19.50
2018-11-05T14:17:09.884Z,20.70
2018-11-05T14:19:45.281Z,19.87
2018-11-05T14:22:18.420Z,19.73
2018-11-05T14:27:58.970Z,19.73
2018-11-05T14:33:21.768Z,19.50
2018-11-05T14:36:09.489Z,19.03
2018-11-05T14:38:43.096Z,20.17
2018-11-05T14:41:11.916Z,19.03
2018-11-05T14:43:44.194Z,19.80
2018-11-05T14:46:33.180Z,20.53
2018-11-05T14:49:02.095Z,18.47
2018-11-05T14:51:30.991Z,20.17
2018-11-05T14:53:59.884Z,19.90
2018-11-05T14:56:28.793Z,20.53
2018-11-05T14:58:57.951Z,19.40
2018-11-05T15:01:26.923Z,19.37
2018-11-05T15:06:58.978Z,19.10
2018-11-05T15:09:27.936Z,20.60
2018-11-05T15:15:00.214Z,19.90
2018-11-05T15:17:30.370Z,19.30
2018-11-05T15:19:59.726Z,20.53
2018-11-05T15:22:30.187Z,21.10
2018-11-05T15:25:05.784Z,19.87
2018-11-05T15:27:35.152Z,19.90
2018-11-05T15:30:18.217Z,20.50
2018-11-05T15:32:47.248Z,19.70
2018-11-05T15:43:58.612Z,19.37
2018-11-05T15:46:49.554Z,19.37
2018-11-05T15:49:18.481Z,19.23
2018-11-05T15:51:51.212Z,19.70
2018-11-05T15:54:34.792Z,20.00
2018-11-05T15:57:03.497Z,19.97
2018-11-05T15:59:50.507Z,18.77
2018-11-05T16:02:25.443Z,18.50
2018-11-05T16:04:58.036Z,17.77
2018-11-05T16:07:27.010Z,18.93
2018-11-05T16:09:56.042Z,17.23
2018-11-05T16:12:30.545Z,19.13
2018-11-05T16:14:59.648Z,17.87
2018-11-05T16:17:43.160Z,16.37
2018-11-05T16:20:19.925Z,18.73
2018-11-05T16:22:56.831Z,17.70
2018-11-05T16:25:31.980Z,18.30
2018-11-05T16:31:12.744Z,17.37
2018-11-05T16:33:43.091Z,18.27
2018-11-05T16:39:13.109Z,17.20
2018-11-05T16:41:45.582Z,19.17
2018-11-05T16:44:37.610Z,17.97
2018-11-05T16:47:10.379Z,17.43
2018-11-05T16:49:43.388Z,16.20
2018-11-05T16:52:12.394Z,16.50
2018-11-05T16:54:41.384Z,15.43
2018-11-05T17:00:10.706Z,16.93
2018-11-05T17:02:40.076Z,17.57
2018-11-05T17:05:08.812Z,16.63
2018-11-05T17:07:58.043Z,16.20
2018-11-05T17:10:30.298Z,16.30
2018-11-05T17:13:01.266Z,15.97
2018-11-05T17:15:37.338Z,16.50
2018-11-05T17:18:07.309Z,16.80
2018-11-05T17:20:43.226Z,15.83
2018-11-05T17:23:29.537Z,16.53
2018-11-05T17:25:58.494Z,17.03
2018-11-05T17:28:28.463Z,15.97
2018-11-05T17:31:10.403Z,15.63
2018-11-05T17:33:50.514Z,16.47
2018-11-05T17:36:41.756Z,16.43
2018-11-05T17:39:11.797Z,15.93
2018-11-05T17:41:41.116Z,16.47
2018-11-05T17:44:14.362Z,17.17
2018-11-05T17:46:53.516Z,16.40
2018-11-05T17:52:25.325Z,16.93
2018-11-05T17:55:03.718Z,16.37
2018-11-05T17:57:33.640Z,18.07
2018-11-05T18:00:10.080Z,18.20
2018-11-05T18:02:43.154Z,18.20
2018-11-05T18:05:18.124Z,18.30
2018-11-05T18:07:47.295Z,18.80
2018-11-05T18:10:19.693Z,17.33
2018-11-05T18:12:50.690Z,17.87
2018-11-05T18:15:19.701Z,16.87
2018-11-05T18:17:50.585Z,18.27
2018-11-05T18:20:19.612Z,16.93
2018-11-05T18:22:52.632Z,17.33
2018-11-05T18:25:21.664Z,16.60
2018-11-05T18:27:50.627Z,15.70
2018-11-05T18:30:31.098Z,16.47
2018-11-05T18:33:05.613Z,15.77
2018-11-05T18:35:41.488Z,15.57
2018-11-05T18:38:13.591Z,16.70
2018-11-05T18:40:48.380Z,17.63
2018-11-05T18:43:24.871Z,16.33
2018-11-05T18:45:53.848Z,16.03
2018-11-05T18:48:24.761Z,15.70
2018-11-05T18:51:00.526Z,16.27
2018-11-05T18:53:33.562Z,16.20
2018-11-05T18:56:09.386Z,17.77
2018-11-05T19:01:33.781Z,17.07
2018-11-05T19:04:09.038Z,16.53
2018-11-05T19:06:45.304Z,17.07
2018-11-05T19:09:14.264Z,17.13
2018-11-05T19:11:44.166Z,17.10
2018-11-05T19:14:13.305Z,17.10
2018-11-05T19:16:42.295Z,16.83
2018-11-05T19:19:13.191Z,16.07
2018-11-05T19:21:44.177Z,17.13
2018-11-05T19:24:23.798Z,16.47
2018-11-05T19:26:54.667Z,17.23
2018-11-05T19:29:23.848Z,16.73
2018-11-05T19:31:56.803Z,17.97
2018-11-05T19:34:46.699Z,16.60
2018-11-05T19:37:16.312Z,16.50
2018-11-05T19:39:55.197Z,16.77
2018-11-05T19:42:24.699Z,17.20
2018-11-05T19:44:54.209Z,17.40
2018-11-05T19:47:23.695Z,17.50
2018-11-05T19:49:54.988Z,18.10
2018-11-05T19:52:28.998Z,19.63
2018-11-05T19:54:59.730Z,18.63
2018-11-05T19:57:29.711Z,17.37
2018-11-05T19:59:59.560Z,18.53
2018-11-05T20:02:30.044Z,17.60
2018-11-05T20:05:02.536Z,18.47
2018-11-05T20:07:36.741Z,18.63
2018-11-05T20:10:10.437Z,19.37
2018-11-05T20:12:44.910Z,18.53
2018-11-05T20:15:21.060Z,18.70
2018-11-05T20:17:56.422Z,18.63
2018-11-05T20:20:26.196Z,18.10
2018-11-05T20:22:56.219Z,17.77
2018-11-05T20:25:26.152Z,18.00
2018-11-05T20:27:55.157Z,18.33
2018-11-05T20:30:27.234Z,17.93
2018-11-05T20:32:58.276Z,18.47
2018-11-05T20:35:28.891Z,18.30
2018-11-05T20:38:15.041Z,19.30
2018-11-05T20:40:49.773Z,17.97
2018-11-05T20:43:35.058Z,18.87
2018-11-05T20:46:09.298Z,18.60
2018-11-05T20:48:45.827Z,18.43
2018-11-05T20:51:22.850Z,19.33
2018-11-05T20:53:51.880Z,18.13
2018-11-05T20:56:39.592Z,18.10
2018-11-05T20:59:12.160Z,18.17
2018-11-05T21:01:44.678Z,17.73
2018-11-05T21:04:24.229Z,19.20
2018-11-05T21:06:54.233Z,18.37
2018-11-05T21:09:28.636Z,19.53
2018-11-05T21:11:59.626Z,18.90
2018-11-05T21:14:53.251Z,19.37
2018-11-05T21:17:27.180Z,18.87
2018-11-05T21:22:51.468Z,19.90
2018-11-05T21:25:25.687Z,20.53
2018-11-05T21:27:58.733Z,20.07
2018-11-05T21:30:27.679Z,20.43
2018-11-05T21:33:08.536Z,21.53
2018-11-05T21:35:37.577Z,20.33
2018-11-05T21:38:16.309Z,20.37
2018-11-05T21:40:56.397Z,21.50
2018-11-05T21:43:25.481Z,21.00
2018-11-05T21:45:55.570Z,21.23
2018-11-05T21:48:26.514Z,22.73
2018-11-05T21:51:05.208Z,22.03
2018-11-05T21:56:43.632Z,20.90
2018-11-05T21:59:12.591Z,21.20
2018-11-05T22:01:53.516Z,21.87
2018-11-05T22:04:22.509Z,23.70
2018-11-05T22:06:57.205Z,22.13
2018-11-05T22:09:26.171Z,22.83
2018-11-05T22:12:00.237Z,21.17
2018-11-05T22:14:32.759Z,22.60
2018-11-05T22:20:01.809Z,21.40
2018-11-05T22:22:42.306Z,22.53
2018-11-05T22:25:13.177Z,22.97
2018-11-05T22:27:43.169Z,22.63
2018-11-05T22:30:12.949Z,21.80
2018-11-05T22:32:51.758Z,22.63
2018-11-05T22:35:20.865Z,21.10
2018-11-05T22:37:56.747Z,22.07
2018-11-05T22:40:26.713Z,22.23
2018-11-05T22:45:52.605Z,21.50
2018-11-05T22:48:27.131Z,21.27
2018-11-05T22:51:04.352Z,21.10
2018-11-05T22:53:37.716Z,21.63
2018-11-05T22:56:22.752Z,20.37
2018-11-05T22:58:51.660Z,20.17
2018-11-05T23:01:32.171Z,21.43
2018-11-05T23:04:02.948Z,20.10
2018-11-05T23:06:32.586Z,20.17
2018-11-05T23:09:02.528Z,20.77
2018-11-05T23:11:33.412Z,21.00
2018-11-05T23:14:08.951Z,20.23
2018-11-05T23:16:44.421Z,20.30
2018-11-05T23:19:14.392Z,20.10
2018-11-05T23:21:49.498Z,19.57
2018-11-05T23:24:18.447Z,19.73
2018-11-05T23:26:47.325Z,21.07
2018-11-05T23:29:16.278Z,20.17
2018-11-05T23:31:45.181Z,19.50
2018-11-05T23:34:14.108Z,19.87
2018-11-05T23:36:42.982Z,20.37
2018-11-05T23:39:29.724Z,20.03
2018-11-05T23:42:15.942Z,19.90
2018-11-05T23:44:45.836Z,19.30
2018-11-05T23:47:28.244Z,19.80
2018-11-05T23:49:57.851Z,20.00
2018-11-05T23:55:21.073Z,20.10
2018-11-05T23:57:49.976Z,20.40
